Time;durP1;ratioP1;P1;durP2;ratioP2;P2;SDS_P1;SDS_P2;PMS_P1;PMS_P2;Temp;Humidity;BMP_temperature;BMP_pressure;BME280_temperature;BME280_humidity;BME280_pressure;Samples;Min_cycle;Max_cycle;Signal;HPM_P1;HPM_P2
2022/08/19 00:00:28;;;;;;;5.65;1.60;;;;;;;;;;5029015;28;20053;-65
2022/08/19 00:02:54;;;;;;;4.30;1.50;;;;;;;;;;4974842;28;20137;-56
2022/08/19 00:05:21;;;;;;;7.55;1.55;;;;;;;;;;4991273;28;20069;-57
2022/08/19 00:07:48;;;;;;;8.05;2.13;;;;;;;;;;5007335;28;20396;-63
2022/08/19 00:10:15;;;;;;;4.80;1.80;;;;;;;;;;4991107;28;20451;-59
2022/08/19 00:12:41;;;;;;;6.00;1.88;;;;;;;;;;4991023;28;20052;-56
2022/08/19 00:15:11;;;;;;;7.28;1.85;;;;;;;;;;4990531;28;20053;-65
2022/08/19 00:17:38;;;;;;;3.35;1.80;;;;;;;;;;5009161;28;20054;-60
2022/08/19 00:20:04;;;;;;;6.00;1.90;;;;;;;;;;5012352;28;20072;-59
2022/08/19 00:22:31;;;;;;;5.30;2.03;;;;;;;;;;5017209;28;20420;-62
2022/08/19 00:24:57;;;;;;;4.80;1.77;;;;;;;;;;4990041;28;20045;-63
2022/08/19 00:27:23;;;;;;;7.07;2.28;;;;;;;;;;5008863;28;20049;-61
2022/08/19 00:29:50;;;;;;;5.78;2.08;;;;;;;;;;4990531;28;20042;-56
2022/08/19 00:32:20;;;;;;;3.70;2.22;;;;;;;;;;5014971;28;20083;-59
2022/08/19 00:34:46;;;;;;;4.80;2.00;;;;;;;;;;4996807;28;20054;-68
2022/08/19 00:37:12;;;;;;;5.93;2.15;;;;;;;;;;5024436;28;20053;-57
2022/08/19 00:39:38;;;;;;;2.65;2.13;;;;;;;;;;5028364;28;20050;-63
2022/08/19 00:42:06;;;;;;;6.15;2.35;;;;;;;;;;5021243;28;20575;-59
2022/08/19 00:44:32;;;;;;;7.68;2.53;;;;;;;;;;5027912;28;20535;-58
2022/08/19 00:46:59;;;;;;;3.78;2.80;;;;;;;;;;5027473;28;20050;-56
2022/08/19 00:49:40;;;;;;;6.15;2.00;;;;;;;;;;5009900;28;20053;-64
2022/08/19 00:52:09;;;;;;;5.28;2.60;;;;;;;;;;5010163;28;20053;-61
2022/08/19 00:54:36;;;;;;;5.30;2.67;;;;;;;;;;5008425;28;20044;-64
2022/08/19 00:57:05;;;;;;;13.55;2.90;;;;;;;;;;5010512;28;20045;-61
2022/08/19 00:59:32;;;;;;;2.38;2.25;;;;;;;;;;5026135;28;20395;-61
2022/08/19 01:01:58;;;;;;;6.10;2.63;;;;;;;;;;5009797;28;20045;-65
2022/08/19 01:04:24;;;;;;;3.13;2.42;;;;;;;;;;5008577;28;20103;-58
2022/08/19 01:06:50;;;;;;;4.63;2.50;;;;;;;;;;5009382;28;20053;-59
2022/08/19 01:09:16;;;;;;;4.50;2.85;;;;;;;;;;5010188;28;20554;-61
2022/08/19 01:11:43;;;;;;;7.20;2.55;;;;;;;;;;5008968;28;20053;-63
2022/08/19 01:14:10;;;;;;;4.97;2.60;;;;;;;;;;5009900;28;20140;-59
2022/08/19 01:16:37;;;;;;;9.18;2.85;;;;;;;;;;5007853;28;20058;-64
2022/08/19 01:19:10;;;;;;;3.20;2.40;;;;;;;;;;4993749;28;20544;-58
2022/08/19 01:21:40;;;;;;;3.30;2.50;;;;;;;;;;5008311;28;20075;-64
2022/08/19 01:24:06;;;;;;;4.15;2.28;;;;;;;;;;5008892;28;20044;-62
2022/08/19 01:26:38;;;;;;;2.95;2.65;;;;;;;;;;5027264;28;20057;-56
2022/08/19 01:29:07;;;;;;;8.02;2.70;;;;;;;;;;5008386;28;20496;-56
2022/08/19 01:31:34;;;;;;;3.00;2.67;;;;;;;;;;5009259;28;20041;-59
2022/08/19 01:34:01;;;;;;;5.65;3.30;;;;;;;;;;5007838;28;20053;-66
2022/08/19 01:36:37;;;;;;;4.90;2.50;;;;;;;;;;5008866;28;20053;-61
2022/08/19 01:39:05;;;;;;;9.07;2.75;;;;;;;;;;5015741;28;20212;-57
2022/08/19 01:41:31;;;;;;;6.13;2.97;;;;;;;;;;5026069;28;20092;-55
2022/08/19 01:43:58;;;;;;;7.40;3.30;;;;;;;;;;5010394;28;20042;-54
2022/08/19 01:46:24;;;;;;;6.15;3.67;;;;;;;;;;5001946;28;20056;-61
2022/08/19 01:48:50;;;;;;;6.85;4.40;;;;;;;;;;5027660;28;20431;-63
2022/08/19 01:51:16;;;;;;;4.10;3.70;;;;;;;;;;5004156;28;20060;-64
2022/08/19 01:53:42;;;;;;;4.57;4.18;;;;;;;;;;5025428;28;20124;-63
2022/08/19 01:56:14;;;;;;;7.80;4.32;;;;;;;;;;5026478;28;20143;-54
2022/08/19 01:58:46;;;;;;;7.57;4.25;;;;;;;;;;5026183;28;20085;-58
2022/08/19 02:01:13;;;;;;;4.57;4.18;;;;;;;;;;5009034;28;20053;-64
2022/08/19 02:03:39;;;;;;;15.32;4.35;;;;;;;;;;5024970;28;20049;-62
2022/08/19 02:06:06;;;;;;;7.78;4.60;;;;;;;;;;5009331;28;20643;-57
2022/08/19 02:08:35;;;;;;;10.35;5.35;;;;;;;;;;5007457;28;20049;-65
2022/08/19 02:11:01;;;;;;;6.87;4.40;;;;;;;;;;5008805;28;20502;-53
2022/08/19 02:13:27;;;;;;;6.68;4.80;;;;;;;;;;5026030;28;20385;-56
2022/08/19 02:15:53;;;;;;;5.57;4.63;;;;;;;;;;5026534;28;20041;-57
2022/08/19 02:18:19;;;;;;;5.20;4.47;;;;;;;;;;5027069;28;20045;-49
2022/08/19 02:20:47;;;;;;;6.68;4.93;;;;;;;;;;5007087;28;20052;-57
2022/08/19 02:23:14;;;;;;;9.07;4.90;;;;;;;;;;5022876;28;20077;-55
2022/08/19 02:25:41;;;;;;;9.43;4.53;;;;;;;;;;5007112;28;20061;-59
2022/08/19 02:28:07;;;;;;;11.52;4.72;;;;;;;;;;5009267;28;20453;-57
2022/08/19 02:30:33;;;;;;;18.92;5.30;;;;;;;;;;4990878;28;20038;-57
2022/08/19 02:32:59;;;;;;;12.60;4.88;;;;;;;;;;5028622;28;20056;-54
2022/08/19 02:35:26;;;;;;;7.13;5.05;;;;;;;;;;5012097;28;20049;-68
2022/08/19 02:40:37;;;;;;;5.32;4.80;;;;;;;;;;5030563;28;20029;-56
2022/08/19 02:43:05;;;;;;;9.25;4.07;;;;;;;;;;4994730;28;20045;-55
2022/08/19 02:45:35;;;;;;;10.00;4.00;;;;;;;;;;5012395;28;20885;-55
2022/08/19 02:48:01;;;;;;;9.20;4.50;;;;;;;;;;5012104;28;20049;-58
2022/08/19 02:50:28;;;;;;;10.77;4.47;;;;;;;;;;5011645;28;20052;-65
2022/08/19 02:52:54;;;;;;;6.22;4.05;;;;;;;;;;5029709;28;20510;-54
2022/08/19 02:55:20;;;;;;;5.60;4.28;;;;;;;;;;5028787;28;20049;-65
2022/08/19 02:57:47;;;;;;;7.43;4.10;;;;;;;;;;5012627;28;20397;-54
2022/08/19 03:00:13;;;;;;;5.30;4.50;;;;;;;;;;5010786;28;20053;-56
2022/08/19 03:02:40;;;;;;;7.57;4.68;;;;;;;;;;5012393;28;20083;-56
2022/08/19 03:05:07;;;;;;;7.40;4.75;;;;;;;;;;4994454;28;20046;-65
2022/08/19 03:07:33;;;;;;;9.02;5.43;;;;;;;;;;5029964;28;20041;-57
2022/08/19 03:09:59;;;;;;;14.50;4.97;;;;;;;;;;5011931;28;20041;-51
2022/08/19 03:12:25;;;;;;;5.03;4.45;;;;;;;;;;5028961;28;20046;-58
2022/08/19 03:14:52;;;;;;;7.38;4.88;;;;;;;;;;4995415;28;20530;-56
2022/08/19 03:17:18;;;;;;;11.30;5.45;;;;;;;;;;5028550;28;20128;-56
2022/08/19 03:19:44;;;;;;;10.32;5.32;;;;;;;;;;5012059;28;20048;-59
2022/08/19 03:22:10;;;;;;;9.65;5.28;;;;;;;;;;5028496;28;20545;-54
2022/08/19 03:24:37;;;;;;;5.50;4.32;;;;;;;;;;5028753;28;20135;-58
2022/08/19 03:27:04;;;;;;;4.68;4.35;;;;;;;;;;5029343;28;20049;-54
2022/08/19 03:29:33;;;;;;;7.28;4.97;;;;;;;;;;5028840;28;20045;-56
2022/08/19 03:32:00;;;;;;;6.78;4.82;;;;;;;;;;5012750;28;20900;-63
2022/08/19 03:34:28;;;;;;;6.50;5.18;;;;;;;;;;5010272;28;20065;-63
2022/08/19 03:36:56;;;;;;;6.35;5.13;;;;;;;;;;5014039;28;20093;-62
2022/08/19 03:39:22;;;;;;;7.78;5.80;;;;;;;;;;5028041;28;20511;-53
2022/08/19 03:41:49;;;;;;;9.50;6.18;;;;;;;;;;4996415;28;20538;-53
2022/08/19 03:44:21;;;;;;;10.77;5.25;;;;;;;;;;5017859;28;20053;-54
2022/08/19 03:46:49;;;;;;;4.97;4.43;;;;;;;;;;5012791;28;20042;-56
2022/08/19 03:49:15;;;;;;;6.80;5.30;;;;;;;;;;5012074;28;20052;-59
2022/08/19 03:51:42;;;;;;;9.95;5.00;;;;;;;;;;5009791;28;20136;-57
2022/08/19 03:54:09;;;;;;;4.53;4.13;;;;;;;;;;5011975;28;20072;-66
2022/08/19 03:56:36;;;;;;;4.35;4.05;;;;;;;;;;5009236;28;20060;-54
2022/08/19 03:59:03;;;;;;;4.70;4.30;;;;;;;;;;5029257;28;20400;-57
2022/08/19 04:01:29;;;;;;;7.32;5.40;;;;;;;;;;5010696;28;20423;-54
2022/08/19 04:03:56;;;;;;;10.23;6.13;;;;;;;;;;5010379;28;20128;-54
2022/08/19 04:06:23;;;;;;;9.82;6.18;;;;;;;;;;5010687;28;20045;-53
2022/08/19 04:08:51;;;;;;;10.25;6.40;;;;;;;;;;5009714;28;20057;-57
2022/08/19 04:11:20;;;;;;;9.00;6.70;;;;;;;;;;5011529;28;20049;-59
2022/08/19 04:13:46;;;;;;;10.20;6.80;;;;;;;;;;5009443;28;20597;-57
2022/08/19 04:16:12;;;;;;;10.10;6.70;;;;;;;;;;5029089;28;20048;-62
2022/08/19 04:18:39;;;;;;;9.10;6.25;;;;;;;;;;5026935;28;20038;-57
2022/08/19 04:21:06;;;;;;;9.52;6.30;;;;;;;;;;5010105;28;20150;-62
2022/08/19 04:23:33;;;;;;;7.95;5.93;;;;;;;;;;5003614;28;20054;-59
2022/08/19 04:25:59;;;;;;;11.27;6.28;;;;;;;;;;4987295;28;20072;-57
2022/08/19 04:28:26;;;;;;;14.20;6.85;;;;;;;;;;5011050;28;20073;-58
2022/08/19 04:30:53;;;;;;;9.95;6.47;;;;;;;;;;5026944;28;20053;-62
2022/08/19 04:33:20;;;;;;;12.35;6.72;;;;;;;;;;5010934;28;20046;-59
2022/08/19 04:35:48;;;;;;;10.73;6.78;;;;;;;;;;5008932;28;20060;-57
2022/08/19 04:38:15;;;;;;;7.72;6.93;;;;;;;;;;4994450;28;20148;-60
2022/08/19 04:43:27;;;;;;;11.77;7.68;;;;;;;;;;5026139;28;20495;-55
2022/08/19 04:45:53;;;;;;;15.23;7.93;;;;;;;;;;5008964;28;20134;-60
2022/08/19 04:48:28;;;;;;;10.35;7.88;;;;;;;;;;5008774;28;20128;-57
2022/08/19 04:50:57;;;;;;;7.72;6.90;;;;;;;;;;5015195;28;20350;-57
2022/08/19 04:53:29;;;;;;;10.65;7.55;;;;;;;;;;5027190;28;20042;-56
2022/08/19 04:55:56;;;;;;;8.07;6.80;;;;;;;;;;5026372;28;20057;-60
2022/08/19 04:58:23;;;;;;;10.85;7.10;;;;;;;;;;5007796;28;20053;-55
2022/08/19 05:00:49;;;;;;;11.20;7.50;;;;;;;;;;5026435;28;20638;-54
2022/08/19 05:03:17;;;;;;;12.77;7.90;;;;;;;;;;5010275;28;20066;-64
2022/08/19 05:05:44;;;;;;;11.52;7.28;;;;;;;;;;5025919;28;20042;-56
2022/08/19 05:08:10;;;;;;;12.63;7.43;;;;;;;;;;5028046;28;20083;-61
2022/08/19 05:10:38;;;;;;;18.02;7.50;;;;;;;;;;5026748;28;20107;-56
2022/08/19 05:13:04;;;;;;;9.90;7.20;;;;;;;;;;5009530;28;20052;-62
2022/08/19 05:15:32;;;;;;;10.77;7.60;;;;;;;;;;5027922;28;20438;-59
2022/08/19 05:23:27;;;;;;;10.55;7.45;;;;;;;;;;5008107;28;20084;-56
2022/08/19 05:25:53;;;;;;;12.50;7.90;;;;;;;;;;5009369;28;20041;-60
2022/08/19 05:28:21;;;;;;;11.77;6.63;;;;;;;;;;5026880;28;20045;-57
2022/08/19 05:30:48;;;;;;;12.77;6.30;;;;;;;;;;5026382;28;20081;-57
2022/08/19 05:33:14;;;;;;;9.93;5.57;;;;;;;;;;5027294;28;20045;-64
2022/08/19 05:35:40;;;;;;;9.63;5.63;;;;;;;;;;5025098;28;20148;-67
2022/08/19 05:38:08;;;;;;;9.52;6.18;;;;;;;;;;5027751;28;20045;-58
2022/08/19 05:40:39;;;;;;;11.13;6.25;;;;;;;;;;5008287;28;20056;-64
2022/08/19 05:43:06;;;;;;;16.67;6.45;;;;;;;;;;5009184;28;20057;-63
2022/08/19 05:45:33;;;;;;;10.68;6.45;;;;;;;;;;5026004;28;20403;-60
2022/08/19 05:47:59;;;;;;;9.88;6.53;;;;;;;;;;4991772;28;20049;-60
2022/08/19 05:50:26;;;;;;;12.32;7.25;;;;;;;;;;4993038;28;20045;-60
2022/08/19 05:52:52;;;;;;;10.45;7.30;;;;;;;;;;5024983;28;20060;-67
2022/08/19 05:55:20;;;;;;;10.27;6.97;;;;;;;;;;4993447;28;20380;-62
2022/08/19 05:57:46;;;;;;;8.77;6.43;;;;;;;;;;5025022;28;20308;-60
2022/08/19 06:00:13;;;;;;;9.45;6.97;;;;;;;;;;5009132;28;20073;-66
2022/08/19 06:02:40;;;;;;;11.43;7.35;;;;;;;;;;5026290;28;20053;-57
2022/08/19 06:05:08;;;;;;;14.38;7.40;;;;;;;;;;4991915;28;20053;-59
2022/08/19 06:07:37;;;;;;;10.35;7.30;;;;;;;;;;5009310;28;20526;-59
2022/08/19 06:10:04;;;;;;;10.10;7.10;;;;;;;;;;4990753;28;20061;-59
2022/08/19 06:12:33;;;;;;;10.70;7.10;;;;;;;;;;5009542;28;20048;-60
2022/08/19 06:15:00;;;;;;;15.87;7.47;;;;;;;;;;5024678;28;20084;-61
2022/08/19 06:17:26;;;;;;;9.48;6.50;;;;;;;;;;5009638;28;20280;-57
2022/08/19 06:19:53;;;;;;;9.40;6.40;;;;;;;;;;4991323;28;20061;-62
2022/08/19 06:22:19;;;;;;;11.35;6.63;;;;;;;;;;5009106;28;20136;-63
2022/08/19 06:24:45;;;;;;;12.32;7.25;;;;;;;;;;5026425;28;20044;-68
2022/08/19 06:27:11;;;;;;;10.27;7.18;;;;;;;;;;5007908;28;20085;-59
2022/08/19 06:29:38;;;;;;;9.77;6.90;;;;;;;;;;5008921;28;20038;-56
2022/08/19 06:32:04;;;;;;;14.30;7.10;;;;;;;;;;5007370;28;20049;-62
2022/08/19 06:34:31;;;;;;;11.60;7.18;;;;;;;;;;5009380;28;20384;-63
2022/08/19 06:37:00;;;;;;;8.30;6.95;;;;;;;;;;5006791;28;20534;-56
2022/08/19 06:39:29;;;;;;;9.90;7.40;;;;;;;;;;4992352;28;20534;-57
2022/08/19 06:41:56;;;;;;;12.65;7.35;;;;;;;;;;5008119;28;20127;-60
2022/08/19 06:44:24;;;;;;;9.70;6.57;;;;;;;;;;5007581;28;20060;-57
2022/08/19 06:46:50;;;;;;;11.82;6.95;;;;;;;;;;5025984;28;20053;-62
2022/08/19 06:49:17;;;;;;;8.95;6.63;;;;;;;;;;5025478;28;20053;-60
2022/08/19 06:51:44;;;;;;;11.15;6.90;;;;;;;;;;5027080;28;20099;-57
2022/08/19 06:54:11;;;;;;;9.55;6.47;;;;;;;;;;5025075;28;20044;-62
2022/08/19 06:56:38;;;;;;;6.80;5.50;;;;;;;;;;5013924;28;20124;-58
2022/08/19 06:59:06;;;;;;;9.05;5.95;;;;;;;;;;5024811;28;20456;-67
2022/08/19 07:01:39;;;;;;;11.52;5.95;;;;;;;;;;5006759;28;20522;-64
2022/08/19 07:04:09;;;;;;;13.57;6.18;;;;;;;;;;5008200;28;20229;-65
2022/08/19 07:06:36;;;;;;;7.65;5.70;;;;;;;;;;5006070;28;20510;-57
2022/08/19 07:09:03;;;;;;;10.63;5.80;;;;;;;;;;5025386;28;20037;-61
2022/08/19 07:11:30;;;;;;;10.25;5.68;;;;;;;;;;5007531;28;20041;-54
2022/08/19 07:13:56;;;;;;;9.15;6.28;;;;;;;;;;5026338;28;20092;-60
2022/08/19 07:16:22;;;;;;;8.05;6.00;;;;;;;;;;5026046;28;20483;-64
2022/08/19 07:18:50;;;;;;;11.98;6.70;;;;;;;;;;5027413;28;20111;-65
2022/08/19 07:21:24;;;;;;;12.50;6.28;;;;;;;;;;4995242;28;20069;-66
2022/08/19 07:23:52;;;;;;;11.07;6.10;;;;;;;;;;5028042;28;20405;-60
2022/08/19 07:26:23;;;;;;;11.13;6.30;;;;;;;;;;5029566;28;20045;-56
2022/08/19 07:28:49;;;;;;;9.30;6.13;;;;;;;;;;5016736;28;20041;-56
2022/08/19 07:31:18;;;;;;;10.80;5.90;;;;;;;;;;5011299;28;20459;-62
2022/08/19 07:33:44;;;;;;;8.57;5.70;;;;;;;;;;5029143;28;20057;-64
2022/08/19 07:36:12;;;;;;;7.38;6.20;;;;;;;;;;5005977;28;20057;-65
2022/08/19 07:38:39;;;;;;;10.02;6.60;;;;;;;;;;5011644;28;20049;-62
2022/08/19 07:41:05;;;;;;;10.63;6.43;;;;;;;;;;5027348;28;20041;-61
2022/08/19 07:43:32;;;;;;;11.02;6.28;;;;;;;;;;4994021;28;20049;-63
2022/08/19 07:45:58;;;;;;;13.80;6.40;;;;;;;;;;5009313;28;20115;-58
2022/08/19 07:48:25;;;;;;;8.68;6.22;;;;;;;;;;5011571;28;20060;-62
2022/08/19 07:50:54;;;;;;;9.88;6.63;;;;;;;;;;5028535;28;20045;-56
2022/08/19 07:53:21;;;;;;;11.60;5.95;;;;;;;;;;5010604;28;20053;-60
2022/08/19 07:55:47;;;;;;;7.90;6.10;;;;;;;;;;5011372;28;20037;-59
2022/08/19 07:58:15;;;;;;;11.50;6.35;;;;;;;;;;5027116;28;20033;-57
2022/08/19 08:00:42;;;;;;;14.77;6.15;;;;;;;;;;5028726;28;20049;-60
2022/08/19 08:03:16;;;;;;;9.18;5.85;;;;;;;;;;5004528;28;20061;-59
2022/08/19 08:11:06;;;;;;;12.73;5.88;;;;;;;;;;5009094;28;20048;-61
2022/08/19 08:13:34;;;;;;;10.38;5.70;;;;;;;;;;5027953;28;20081;-67
2022/08/19 08:16:01;;;;;;;9.23;6.53;;;;;;;;;;5008132;28;20049;-64
2022/08/19 08:18:27;;;;;;;8.30;5.40;;;;;;;;;;5028691;28;20045;-63
2022/08/19 08:20:53;;;;;;;6.13;5.53;;;;;;;;;;4992930;28;20045;-58
2022/08/19 08:23:22;;;;;;;12.00;5.20;;;;;;;;;;5011622;28;20550;-66
2022/08/19 08:25:48;;;;;;;8.98;5.32;;;;;;;;;;5011043;28;20096;-65
2022/08/19 08:28:15;;;;;;;8.45;5.32;;;;;;;;;;5026966;28;20419;-65
2022/08/19 08:30:43;;;;;;;6.32;4.65;;;;;;;;;;5005928;28;20049;-57
2022/08/19 08:33:09;;;;;;;11.13;5.07;;;;;;;;;;5008324;28;20480;-58
2022/08/19 08:35:36;;;;;;;5.35;4.00;;;;;;;;;;4991482;28;20037;-61
2022/08/19 08:38:04;;;;;;;8.35;3.88;;;;;;;;;;4996646;28;20069;-57
2022/08/19 08:40:51;;;;;;;12.90;4.00;;;;;;;;;;4990436;28;20046;-60
2022/08/19 08:43:31;;;;;;;8.15;5.15;;;;;;;;;;4989698;28;20056;-60
2022/08/19 08:46:00;;;;;;;5.55;4.90;;;;;;;;;;5006695;28;20042;-59
2022/08/19 08:48:36;;;;;;;6.38;5.28;;;;;;;;;;5007696;28;20149;-62
2022/08/19 08:51:05;;;;;;;9.85;5.82;;;;;;;;;;4988444;28;20488;-57
2022/08/19 08:53:33;;;;;;;9.60;5.43;;;;;;;;;;5007000;28;20050;-68
2022/08/19 08:56:02;;;;;;;11.88;4.93;;;;;;;;;;4989599;28;20046;-69
2022/08/19 08:58:31;;;;;;;6.90;4.50;;;;;;;;;;4988171;28;20045;-62
2022/08/19 09:00:57;;;;;;;4.78;4.30;;;;;;;;;;4974585;28;20129;-63
2022/08/19 09:03:25;;;;;;;10.25;5.18;;;;;;;;;;4972075;28;20121;-65
2022/08/19 09:05:55;;;;;;;8.93;5.07;;;;;;;;;;4983732;28;20413;-68
2022/08/19 09:08:33;;;;;;;6.88;4.30;;;;;;;;;;4988724;28;20128;-64
2022/08/19 09:11:00;;;;;;;9.77;5.18;;;;;;;;;;5004662;28;20137;-58
2022/08/19 09:13:55;;;;;;;10.27;4.43;;;;;;;;;;4989982;28;20046;-65
2022/08/19 09:16:26;;;;;;;21.27;6.93;;;;;;;;;;4974574;28;20127;-63
2022/08/19 09:18:54;;;;;;;8.25;4.20;;;;;;;;;;4973798;28;20141;-66
2022/08/19 09:21:22;;;;;;;6.85;4.70;;;;;;;;;;4987987;28;20052;-57
2022/08/19 09:23:48;;;;;;;7.45;5.03;;;;;;;;;;4998464;28;20057;-59
2022/08/19 09:26:16;;;;;;;8.40;3.92;;;;;;;;;;4993604;28;20050;-58
2022/08/19 09:28:45;;;;;;;9.35;4.07;;;;;;;;;;4988467;28;20056;-62
2022/08/19 09:31:13;;;;;;;7.28;4.22;;;;;;;;;;4984487;28;20404;-65
2022/08/19 09:33:43;;;;;;;7.35;4.45;;;;;;;;;;5003176;28;20042;-64
2022/08/19 09:36:10;;;;;;;5.85;4.38;;;;;;;;;;4996082;28;20108;-64
2022/08/19 09:38:40;;;;;;;11.50;4.93;;;;;;;;;;5004790;28;20058;-62
2022/08/19 09:41:07;;;;;;;8.73;3.55;;;;;;;;;;5004727;28;20401;-58
2022/08/19 09:43:39;;;;;;;6.22;2.83;;;;;;;;;;4999810;28;20049;-63
2022/08/19 09:46:07;;;;;;;4.35;2.60;;;;;;;;;;5005181;28;20077;-64
2022/08/19 09:48:34;;;;;;;6.47;3.33;;;;;;;;;;5007011;28;20054;-60
2022/08/19 09:51:04;;;;;;;5.13;2.50;;;;;;;;;;5000438;28;20049;-62
2022/08/19 09:53:30;;;;;;;6.57;2.58;;;;;;;;;;5006462;28;20164;-57
2022/08/19 09:55:56;;;;;;;6.00;2.83;;;;;;;;;;4975598;28;20056;-68
2022/08/19 09:58:27;;;;;;;3.00;2.22;;;;;;;;;;5004358;28;20073;-58
2022/08/19 10:00:54;;;;;;;5.65;2.45;;;;;;;;;;4977541;28;20061;-66
2022/08/19 10:03:20;;;;;;;3.47;2.20;;;;;;;;;;5001294;28;20148;-60
2022/08/19 10:05:49;;;;;;;3.05;1.80;;;;;;;;;;5005736;28;20057;-62
2022/08/19 10:08:35;;;;;;;5.55;1.88;;;;;;;;;;4998267;28;20046;-61
2022/08/19 10:11:02;;;;;;;3.78;2.30;;;;;;;;;;5004767;28;20116;-58
2022/08/19 10:13:29;;;;;;;9.63;1.90;;;;;;;;;;5001368;28;20699;-62
2022/08/19 10:15:56;;;;;;;5.88;1.80;;;;;;;;;;5002980;28;20053;-63
2022/08/19 10:18:23;;;;;;;3.92;1.73;;;;;;;;;;5003698;28;20034;-69
2022/08/19 10:20:50;;;;;;;5.38;4.50;;;;;;;;;;5002664;28;20046;-69
2022/08/19 10:23:17;;;;;;;8.93;5.03;;;;;;;;;;5003463;28;20077;-67
2022/08/19 10:25:43;;;;;;;5.75;3.88;;;;;;;;;;5003577;28;20061;-58
2022/08/19 10:28:11;;;;;;;7.75;3.80;;;;;;;;;;5005057;28;20038;-61
2022/08/19 10:30:39;;;;;;;11.25;3.63;;;;;;;;;;5004854;28;20473;-69
2022/08/19 10:33:05;;;;;;;4.35;2.85;;;;;;;;;;5003084;28;20057;-60
2022/08/19 10:35:32;;;;;;;4.35;2.72;;;;;;;;;;4990132;28;20484;-58
2022/08/19 10:38:01;;;;;;;2.85;2.08;;;;;;;;;;4994228;28;20045;-59
2022/08/19 10:40:28;;;;;;;3.00;1.88;;;;;;;;;;5008811;28;20201;-58
2022/08/19 10:42:55;;;;;;;5.25;2.22;;;;;;;;;;4994563;28;20164;-58
2022/08/19 10:45:25;;;;;;;4.97;3.63;;;;;;;;;;5017667;28;20065;-65
2022/08/19 10:47:53;;;;;;;5.95;3.70;;;;;;;;;;4987521;28;20111;-58
2022/08/19 10:53:05;;;;;;;7.55;4.10;;;;;;;;;;5010519;28;20139;-65
2022/08/19 10:58:22;;;;;;;5.03;3.55;;;;;;;;;;5013933;28;20050;-66
2022/08/19 11:00:56;;;;;;;9.23;3.72;;;;;;;;;;5006741;28;20061;-65
2022/08/19 11:03:23;;;;;;;4.68;3.78;;;;;;;;;;5004606;28;20050;-62
2022/08/19 11:06:01;;;;;;;7.03;3.03;;;;;;;;;;5023663;28;20107;-62
2022/08/19 11:08:27;;;;;;;;;;;;;;;;;;5007062;28;20365;-63
2022/08/19 11:10:57;;;;;;;5.90;3.22;;;;;;;;;;5006777;28;19928;-58
2022/08/19 11:13:24;;;;;;;5.50;3.65;;;;;;;;;;4999271;28;20400;-65
2022/08/19 11:16:10;;;;;;;4.88;4.38;;;;;;;;;;4980597;28;20049;-64
2022/08/19 11:18:37;;;;;;;8.85;3.65;;;;;;;;;;5010789;28;20140;-63
2022/08/19 11:21:07;;;;;;;7.47;3.78;;;;;;;;;;5024890;28;20085;-66
2022/08/19 11:23:34;;;;;;;14.20;4.38;;;;;;;;;;5007659;28;20140;-59
2022/08/19 11:26:00;;;;;;;10.95;3.50;;;;;;;;;;5008370;28;20112;-67
2022/08/19 11:28:27;;;;;;;11.15;3.72;;;;;;;;;;5009979;28;20491;-64
2022/08/19 11:30:53;;;;;;;4.13;3.40;;;;;;;;;;4994401;28;20045;-60
2022/08/19 11:33:19;;;;;;;7.45;3.40;;;;;;;;;;5010212;28;20057;-61
2022/08/19 11:35:45;;;;;;;5.55;2.70;;;;;;;;;;5008834;28;20057;-57
2022/08/19 11:38:11;;;;;;;2.65;2.15;;;;;;;;;;4998155;28;20041;-59
2022/08/19 11:40:38;;;;;;;2.92;1.90;;;;;;;;;;5007173;28;20496;-62
2022/08/19 11:43:04;;;;;;;4.50;2.40;;;;;;;;;;5009927;28;20095;-57
2022/08/19 11:45:30;;;;;;;3.22;2.22;;;;;;;;;;4989931;28;20087;-61
2022/08/19 11:47:56;;;;;;;4.32;2.25;;;;;;;;;;5018115;28;20139;-63
2022/08/19 11:50:23;;;;;;;2.78;2.22;;;;;;;;;;5017000;28;20042;-57
2022/08/19 11:52:49;;;;;;;7.20;2.00;;;;;;;;;;4983429;28;20041;-56
2022/08/19 11:55:15;;;;;;;11.02;2.45;;;;;;;;;;5013235;28;20038;-66
2022/08/19 11:57:43;;;;;;;4.60;2.78;;;;;;;;;;5003528;28;20041;-58
2022/08/19 12:00:11;;;;;;;4.10;2.30;;;;;;;;;;5015077;28;20541;-59
2022/08/19 12:02:37;;;;;;;4.30;2.38;;;;;;;;;;5008808;28;20484;-65
2022/08/19 12:05:05;;;;;;;6.72;2.60;;;;;;;;;;5015519;28;20060;-60
2022/08/19 12:07:32;;;;;;;2.95;2.30;;;;;;;;;;4994137;28;21884;-62
2022/08/19 12:09:59;;;;;;;4.43;2.53;;;;;;;;;;5028460;28;20050;-57
2022/08/19 12:12:26;;;;;;;4.90;2.22;;;;;;;;;;5026450;28;20076;-61
2022/08/19 12:14:56;;;;;;;4.05;2.67;;;;;;;;;;5029296;28;20053;-67
2022/08/19 12:17:27;;;;;;;3.35;2.10;;;;;;;;;;4992858;28;20199;-64
2022/08/19 12:19:53;;;;;;;4.82;2.70;;;;;;;;;;5010795;28;20562;-63
2022/08/19 12:22:20;;;;;;;3.80;2.20;;;;;;;;;;5027138;28;20053;-59
2022/08/19 12:24:47;;;;;;;5.13;2.38;;;;;;;;;;4994539;28;20060;-66
2022/08/19 12:27:13;;;;;;;6.35;2.25;;;;;;;;;;5010358;28;20393;-57
2022/08/19 12:29:41;;;;;;;4.00;1.85;;;;;;;;;;4993506;28;20379;-64
2022/08/19 12:32:08;;;;;;;3.38;2.28;;;;;;;;;;5011208;28;20060;-62
2022/08/19 12:34:37;;;;;;;2.58;2.25;;;;;;;;;;5008690;28;20454;-58
2022/08/19 12:37:04;;;;;;;;;;;;;;;;;;5010798;28;20053;-64
2022/08/19 12:39:31;;;;;;;4.22;2.13;;;;;;;;;;4992550;28;19921;-64
2022/08/19 12:41:57;;;;;;;2.55;1.90;;;;;;;;;;5028391;28;20760;-66
2022/08/19 12:44:24;;;;;;;4.30;1.80;;;;;;;;;;5027424;28;20053;-58
2022/08/19 12:46:50;;;;;;;2.38;1.45;;;;;;;;;;4995512;28;20045;-60
2022/08/19 12:49:16;;;;;;;1.88;1.70;;;;;;;;;;5010783;28;20077;-68
2022/08/19 12:51:45;;;;;;;2.20;1.45;;;;;;;;;;5026845;28;20124;-61
2022/08/19 12:54:11;;;;;;;3.03;1.80;;;;;;;;;;5028187;28;20562;-61
2022/08/19 12:56:38;;;;;;;1.90;1.42;;;;;;;;;;5008259;28;20439;-65
2022/08/19 12:59:04;;;;;;;3.75;1.60;;;;;;;;;;5010575;28;20057;-63
2022/08/19 13:01:32;;;;;;;2.70;1.60;;;;;;;;;;5026407;28;20046;-60
2022/08/19 13:03:59;;;;;;;7.68;1.73;;;;;;;;;;5009517;28;20484;-61
2022/08/19 13:06:25;;;;;;;1.88;1.50;;;;;;;;;;5010186;28;20045;-57
2022/08/19 13:08:52;;;;;;;2.47;1.67;;;;;;;;;;4992314;28;20128;-60
2022/08/19 13:11:19;;;;;;;3.38;1.48;;;;;;;;;;5008467;28;20659;-62
2022/08/19 13:13:47;;;;;;;4.18;1.48;;;;;;;;;;5007775;28;20455;-64
2022/08/19 13:16:13;;;;;;;2.40;1.30;;;;;;;;;;5009337;28;20515;-61
2022/08/19 13:18:41;;;;;;;7.25;1.90;;;;;;;;;;4992109;28;20049;-63
2022/08/19 13:21:08;;;;;;;2.25;1.63;;;;;;;;;;5008957;28;20057;-64
2022/08/19 13:23:38;;;;;;;2.55;1.50;;;;;;;;;;5007072;28;20041;-58
2022/08/19 13:26:05;;;;;;;6.70;1.83;;;;;;;;;;4988477;28;20033;-59
2022/08/19 13:33:10;;;;;;;2.13;1.50;;;;;;;;;;4992171;28;20041;-63
2022/08/19 13:34:04;;;;;;;1.70;1.50;;;;;;;;;;5009739;28;20045;-68
2022/08/19 13:36:30;;;;;;;5.30;2.10;;;;;;;;;;4991641;28;20053;-59
2022/08/19 13:38:56;;;;;;;4.82;1.60;;;;;;;;;;5007156;28;20563;-66
2022/08/19 13:41:23;;;;;;;2.08;1.48;;;;;;;;;;5009011;28;20067;-69
2022/08/19 13:43:49;;;;;;;2.58;1.73;;;;;;;;;;4990951;28;20049;-66
2022/08/19 13:46:15;;;;;;;2.08;1.80;;;;;;;;;;5008660;28;20072;-69
2022/08/19 13:48:42;;;;;;;3.80;1.85;;;;;;;;;;5007048;28;20135;-58
2022/08/19 13:51:11;;;;;;;2.67;1.98;;;;;;;;;;5008340;28;20052;-69
2022/08/19 13:53:38;;;;;;;5.07;2.03;;;;;;;;;;5008199;28;20048;-61
2022/08/19 13:56:07;;;;;;;2.53;2.33;;;;;;;;;;5007713;28;20116;-60
2022/08/19 13:58:34;;;;;;;3.25;2.20;;;;;;;;;;5025891;28;20042;-61
2022/08/19 14:01:00;;;;;;;2.40;2.20;;;;;;;;;;5006837;28;20940;-64
2022/08/19 14:03:26;;;;;;;2.20;2.00;;;;;;;;;;5007472;28;20041;-61
2022/08/19 14:05:52;;;;;;;2.40;2.17;;;;;;;;;;5003364;28;20057;-69
2022/08/19 14:08:19;;;;;;;3.78;2.22;;;;;;;;;;5009102;28;20049;-61
2022/08/19 14:10:45;;;;;;;3.65;2.10;;;;;;;;;;5008149;28;20499;-63
2022/08/19 14:13:13;;;;;;;4.43;2.70;;;;;;;;;;4992049;28;20037;-60
2022/08/19 14:15:40;;;;;;;16.08;8.38;;;;;;;;;;5005695;28;20507;-67
2022/08/19 14:18:06;;;;;;;12.23;8.27;;;;;;;;;;5023827;28;20057;-58
2022/08/19 14:20:35;;;;;;;10.30;6.68;;;;;;;;;;5015051;28;20103;-61
2022/08/19 14:23:01;;;;;;;10.00;7.15;;;;;;;;;;5020745;28;20053;-64
2022/08/19 14:25:28;;;;;;;9.95;7.93;;;;;;;;;;5009836;28;20441;-68
2022/08/19 14:27:54;;;;;;;11.65;8.27;;;;;;;;;;5023445;28;20092;-60
2022/08/19 14:30:27;;;;;;;14.68;7.90;;;;;;;;;;5014552;28;20103;-66
2022/08/19 14:32:53;;;;;;;14.27;8.52;;;;;;;;;;5030064;28;20085;-60
2022/08/19 14:35:21;;;;;;;11.10;7.72;;;;;;;;;;5009872;28;20511;-65
2022/08/19 14:37:48;;;;;;;7.78;6.22;;;;;;;;;;5016681;28;20045;-61
2022/08/19 14:40:16;;;;;;;10.75;6.60;;;;;;;;;;5016355;28;20128;-60
2022/08/19 14:42:42;;;;;;;10.52;6.38;;;;;;;;;;5025792;28;20068;-63
2022/08/19 14:45:09;;;;;;;14.60;7.07;;;;;;;;;;5018728;28;20095;-65
2022/08/19 14:47:35;;;;;;;16.05;7.78;;;;;;;;;;5010792;28;20444;-60
2022/08/19 14:50:01;;;;;;;10.15;6.03;;;;;;;;;;5012013;28;20053;-58
2022/08/19 14:52:27;;;;;;;10.18;5.43;;;;;;;;;;5011316;28;20037;-62
2022/08/19 14:54:53;;;;;;;6.25;4.28;;;;;;;;;;5022156;28;20049;-70
2022/08/19 14:57:19;;;;;;;6.80;4.50;;;;;;;;;;5019305;28;20068;-60
2022/08/19 14:59:46;;;;;;;7.70;4.93;;;;;;;;;;5006639;28;20045;-57
2022/08/19 15:02:12;;;;;;;10.18;4.80;;;;;;;;;;5014288;28;20049;-58
2022/08/19 15:04:38;;;;;;;11.15;6.00;;;;;;;;;;5013023;28;20068;-64
2022/08/19 15:07:05;;;;;;;7.40;3.90;;;;;;;;;;5014332;28;20496;-57